createdAt,value
2018-10-03T00:02:08.471Z,99451.36
2018-10-03T00:04:37.163Z,99446.80
2018-10-03T00:07:05.862Z,99449.61
2018-10-03T00:09:34.549Z,99454.28
2018-10-03T00:12:03.247Z,99472.93
2018-10-03T00:14:31.875Z,99470.17
2018-10-03T00:17:00.459Z,99467.44
2018-10-03T00:19:29.148Z,99466.52
2018-10-03T00:21:57.738Z,99464.69
2018-10-03T00:24:26.259Z,99468.45
2018-10-03T00:26:54.875Z,99474.38
2018-10-03T00:29:23.387Z,99458.09
2018-10-03T00:31:53.063Z,99448.48
2018-10-03T00:34:21.669Z,99438.41
2018-10-03T00:36:51.883Z,99435.44
2018-10-03T00:39:21.499Z,99423.98
2018-10-03T00:41:51.200Z,99428.16
2018-10-03T00:44:19.875Z,99424.34
2018-10-03T00:46:48.536Z,99423.28
2018-10-03T00:49:18.051Z,99420.41
2018-10-03T00:51:47.730Z,99421.14
2018-10-03T00:54:16.224Z,99429.41
2018-10-03T00:56:44.765Z,99416.30
2018-10-03T00:59:13.314Z,99423.31
2018-10-03T01:01:41.815Z,99423.58
2018-10-03T01:04:10.387Z,99422.09
2018-10-03T01:06:38.924Z,99414.39
2018-10-03T01:09:07.654Z,99421.95
2018-10-03T01:11:36.223Z,99415.44
2018-10-03T01:14:04.894Z,99412.41
2018-10-03T01:16:33.482Z,99417.28
2018-10-03T01:19:02.107Z,99404.11
2018-10-03T01:21:30.646Z,99402.33
2018-10-03T01:23:59.230Z,99406.74
2018-10-03T01:26:27.822Z,99404.11
2018-10-03T01:28:57.435Z,99407.53
2018-10-03T01:31:26.122Z,99417.02
2018-10-03T01:33:54.767Z,99405.56
2018-10-03T01:36:23.304Z,99404.64
2018-10-03T01:38:51.888Z,99398.45
2018-10-03T01:41:20.478Z,99398.84
2018-10-03T01:43:49.028Z,99405.04
2018-10-03T01:46:17.579Z,99408.13
2018-10-03T01:48:46.151Z,99409.84
2018-10-03T01:51:14.746Z,99405.44
2018-10-03T01:53:43.328Z,99402.86
2018-10-03T01:56:11.980Z,99407.54
2018-10-03T01:58:40.544Z,99399.08
2018-10-03T02:01:09.159Z,99407.37
2018-10-03T02:03:37.818Z,99409.95
2018-10-03T02:06:06.392Z,99420.88
2018-10-03T02:08:35.156Z,99403.36
2018-10-03T02:11:03.739Z,99404.15
2018-10-03T02:13:32.226Z,99402.38
2018-10-03T02:16:00.816Z,99409.75
2018-10-03T02:18:29.452Z,99412.25
2018-10-03T02:20:58.014Z,99417.92
2018-10-03T02:23:26.574Z,99407.25
2018-10-03T02:25:55.126Z,99398.16
2018-10-03T02:28:24.636Z,99390.78
2018-10-03T02:30:53.115Z,99408.44
2018-10-03T02:33:21.671Z,99390.91
2018-10-03T02:35:50.362Z,99394.47
2018-10-03T02:38:18.873Z,99393.61
2018-10-03T02:40:47.403Z,99388.80
2018-10-03T02:43:15.962Z,99397.10
2018-10-03T02:45:44.490Z,99387.42
2018-10-03T02:48:13.119Z,99382.22
2018-10-03T02:50:41.659Z,99374.31
2018-10-03T02:53:10.166Z,99381.36
2018-10-03T02:55:38.845Z,99370.77
2018-10-03T02:58:08.143Z,99373.20
2018-10-03T03:00:36.727Z,99370.59
2018-10-03T03:03:05.334Z,99377.30
2018-10-03T03:05:33.916Z,99367.94
2018-10-03T03:08:02.576Z,99369.88
2018-10-03T03:10:32.966Z,99365.25
2018-10-03T03:13:01.502Z,99381.52
2018-10-03T03:15:31.027Z,99397.48
2018-10-03T03:21:20.446Z,99429.70
2018-10-03T03:23:48.925Z,99431.25
2018-10-03T03:26:19.687Z,99417.81
2018-10-03T03:28:48.296Z,99424.06
2018-10-03T03:31:17.489Z,99422.42
2018-10-03T03:33:45.949Z,99421.83
2018-10-03T03:36:14.589Z,99420.31
2018-10-03T03:38:43.159Z,99417.62
2018-10-03T03:41:11.754Z,99424.96
2018-10-03T03:43:40.439Z,99398.03
2018-10-03T03:46:09.327Z,99409.05
2018-10-03T03:48:37.855Z,99402.44
2018-10-03T03:51:07.614Z,99406.67
2018-10-03T03:53:36.340Z,99420.69
2018-10-03T03:56:04.893Z,99402.17
2018-10-03T03:58:33.578Z,99402.73
2018-10-03T04:01:02.198Z,99405.91
2018-10-03T04:03:30.788Z,99418.20
2018-10-03T04:05:59.367Z,99415.44
2018-10-03T04:08:27.946Z,99393.45
2018-10-03T04:10:56.531Z,99407.41
2018-10-03T04:13:25.995Z,99412.55
2018-10-03T04:15:54.547Z,99400.40
2018-10-03T04:18:24.620Z,99394.73
2018-10-03T04:20:53.207Z,99402.24
2018-10-03T04:23:21.759Z,99377.47
2018-10-03T04:25:50.356Z,99382.68
2018-10-03T04:28:18.904Z,99387.52
2018-10-03T04:30:47.444Z,99390.52
2018-10-03T04:33:16.108Z,99389.42
2018-10-03T04:35:44.805Z,99387.72
2018-10-03T04:38:13.275Z,99388.44
2018-10-03T04:40:41.865Z,99386.13
2018-10-03T04:43:10.453Z,99392.05
2018-10-03T04:45:38.986Z,99392.53
2018-10-03T04:48:07.558Z,99395.82
2018-10-03T04:50:36.102Z,99388.33
2018-10-03T04:53:05.968Z,99391.41
2018-10-03T04:55:34.664Z,99399.39
2018-10-03T04:58:03.318Z,99400.83
2018-10-03T05:00:31.896Z,99390.34
2018-10-03T05:03:00.414Z,99393.70
2018-10-03T05:05:28.927Z,99389.99
2018-10-03T05:07:58.190Z,99394.70
2018-10-03T05:10:26.749Z,99393.24
2018-10-03T05:12:55.506Z,99388.28
2018-10-03T05:15:24.053Z,99416.77
2018-10-03T05:17:52.640Z,99399.48
2018-10-03T05:20:21.288Z,99406.47
2018-10-03T05:22:50.024Z,99392.49
2018-10-03T05:25:18.547Z,99416.48
2018-10-03T05:27:47.298Z,99409.75
2018-10-03T05:30:15.867Z,99428.75
2018-10-03T05:32:44.495Z,99425.90
2018-10-03T05:35:13.177Z,99430.25
2018-10-03T05:37:41.822Z,99434.89
2018-10-03T05:40:10.639Z,99436.78
2018-10-03T05:42:39.381Z,99439.17
2018-10-03T05:45:07.924Z,99435.21
2018-10-03T05:47:36.494Z,99438.77
2018-10-03T05:50:05.243Z,99450.80
2018-10-03T05:52:33.820Z,99452.17
2018-10-03T05:55:02.416Z,99447.57
2018-10-03T05:57:30.968Z,99451.53
2018-10-03T05:59:59.534Z,99473.35
2018-10-03T06:02:28.148Z,99449.93
2018-10-03T06:04:56.746Z,99466.16
2018-10-03T06:07:25.587Z,99441.45
2018-10-03T06:09:54.039Z,99473.36
2018-10-03T06:12:22.637Z,99484.03
2018-10-03T06:14:51.235Z,99473.27
2018-10-03T06:17:20.123Z,99489.96
2018-10-03T06:19:48.599Z,99509.09
2018-10-03T06:22:17.248Z,99493.49
2018-10-03T06:24:45.996Z,99504.34
2018-10-03T06:27:14.843Z,99481.22
2018-10-03T06:29:44.993Z,99487.89
2018-10-03T06:32:13.643Z,99489.31
2018-10-03T06:34:42.231Z,99501.59
2018-10-03T06:37:11.664Z,99518.14
2018-10-03T06:39:40.269Z,99487.11
2018-10-03T06:42:08.479Z,99515.83
2018-10-03T06:44:37.123Z,99506.05
2018-10-03T06:47:05.703Z,99504.66
2018-10-03T06:49:36.398Z,99510.25
2018-10-03T06:52:05.270Z,99520.60
2018-10-03T06:54:33.747Z,99508.39
2018-10-03T06:57:02.505Z,99531.09
2018-10-03T06:59:31.321Z,99540.33
2018-10-03T07:01:59.856Z,99505.84
2018-10-03T07:04:28.395Z,99508.34
2018-10-03T07:06:57.019Z,99531.58
2018-10-03T07:09:25.812Z,99504.77
2018-10-03T07:11:54.254Z,99504.20
2018-10-03T07:14:22.776Z,99494.03
2018-10-03T07:16:51.744Z,99501.27
2018-10-03T07:19:20.638Z,99500.32
2018-10-03T07:21:49.232Z,99496.45
2018-10-03T07:24:17.773Z,99507.47
2018-10-03T07:26:46.356Z,99502.80
2018-10-03T07:29:14.896Z,99518.95
2018-10-03T07:31:43.477Z,99540.50
2018-10-03T07:34:12.257Z,99511.50
2018-10-03T07:36:40.840Z,99529.20
2018-10-03T07:39:10.292Z,99510.30
2018-10-03T07:41:39.050Z,99522.80
2018-10-03T07:44:08.054Z,99522.88
2018-10-03T07:46:36.628Z,99529.89
2018-10-03T07:49:05.195Z,99537.83
2018-10-03T07:51:33.812Z,99590.14
2018-10-03T07:54:02.402Z,99509.81
2018-10-03T07:56:31.832Z,99526.42
2018-10-03T07:59:00.412Z,99527.89
2018-10-03T08:01:28.986Z,99542.29
2018-10-03T08:03:57.728Z,99550.15
2018-10-03T08:06:26.307Z,99529.83
2018-10-03T08:08:55.021Z,99524.61
2018-10-03T08:11:23.572Z,99544.70
2018-10-03T08:13:52.084Z,99563.86
2018-10-03T08:16:20.660Z,99542.77
2018-10-03T08:18:49.581Z,99601.73
2018-10-03T08:21:18.811Z,99553.70
2018-10-03T08:23:47.320Z,99558.06
2018-10-03T08:26:15.852Z,99561.06
2018-10-03T08:28:44.438Z,99578.50
2018-10-03T08:31:13.800Z,99566.73
2018-10-03T08:33:42.428Z,99572.92
2018-10-03T08:36:11.066Z,99577.00
2018-10-03T08:38:39.672Z,99578.00
2018-10-03T08:41:08.295Z,99553.42
2018-10-03T08:43:36.854Z,99570.31
2018-10-03T08:46:05.383Z,99571.86
2018-10-03T08:48:33.997Z,99579.91
2018-10-03T08:51:02.537Z,99594.75
2018-10-03T08:53:31.116Z,99585.65
2018-10-03T08:55:59.703Z,99603.72
2018-10-03T08:58:28.441Z,99582.69
2018-10-03T09:00:56.766Z,99603.49
2018-10-03T09:03:25.276Z,99628.89
2018-10-03T09:05:53.814Z,99603.63
2018-10-03T09:08:22.471Z,99596.23
2018-10-03T09:13:26.914Z,99584.25
2018-10-03T09:15:55.688Z,99615.24
2018-10-03T09:18:24.413Z,99601.07
2018-10-03T09:20:53.008Z,99597.65
2018-10-03T09:23:21.587Z,99610.11
2018-10-03T09:25:50.325Z,99615.55
2018-10-03T09:28:18.871Z,99601.70
2018-10-03T09:30:47.488Z,99609.56
2018-10-03T09:33:16.096Z,99603.48
2018-10-03T09:35:44.645Z,99599.27
2018-10-03T09:38:13.192Z,99603.96
2018-10-03T09:40:41.819Z,99649.25
2018-10-03T09:43:10.617Z,99609.72
2018-10-03T09:45:39.078Z,99659.31
2018-10-03T09:48:07.653Z,99641.26
2018-10-03T09:50:36.215Z,99633.65
2018-10-03T09:53:04.890Z,99634.54
2018-10-03T09:55:33.477Z,99688.52
2018-10-03T09:58:02.000Z,99625.73
2018-10-03T10:00:35.985Z,99655.08
2018-10-03T10:03:04.679Z,99628.97
2018-10-03T10:05:33.352Z,99684.71
2018-10-03T10:08:01.955Z,99691.08
2018-10-03T10:10:30.456Z,99625.02
2018-10-03T10:12:59.533Z,99640.26
2018-10-03T10:15:28.294Z,99649.56
2018-10-03T10:17:56.904Z,99646.89
2018-10-03T10:20:25.565Z,99685.02
2018-10-03T10:22:54.391Z,99643.30
2018-10-03T10:25:22.882Z,99658.34
2018-10-03T10:27:51.388Z,99672.64
2018-10-03T10:30:20.058Z,99698.87
2018-10-03T10:32:48.640Z,99701.02
2018-10-03T10:35:17.166Z,99700.73
2018-10-03T10:37:47.299Z,99704.66
2018-10-03T10:40:15.975Z,99701.56
2018-10-03T10:42:44.470Z,99681.70
2018-10-03T10:45:13.004Z,99691.31
2018-10-03T10:47:42.150Z,99698.00
2018-10-03T10:50:10.967Z,99679.81
2018-10-03T10:52:39.624Z,99679.56
2018-10-03T10:55:08.314Z,99663.46
2018-10-03T10:57:37.000Z,99698.70
2018-10-03T11:00:05.897Z,99690.59
2018-10-03T11:02:34.681Z,99701.52
2018-10-03T11:05:05.129Z,99710.38
2018-10-03T11:07:33.645Z,99704.63
2018-10-03T11:10:02.248Z,99701.25
2018-10-03T11:12:30.760Z,99678.33
2018-10-03T11:14:59.278Z,99690.38
2018-10-03T11:17:27.862Z,99693.97
2018-10-03T11:19:56.581Z,99697.16
2018-10-03T11:22:26.269Z,99720.79
2018-10-03T11:24:54.979Z,99744.09
2018-10-03T11:27:23.474Z,99708.73
2018-10-03T11:29:52.033Z,99724.95
2018-10-03T11:32:20.624Z,99794.13
2018-10-03T11:34:49.172Z,99686.78
2018-10-03T11:37:17.747Z,99685.96
2018-10-03T11:39:46.352Z,99674.28
2018-10-03T11:42:14.936Z,99695.31
2018-10-03T11:44:43.665Z,99680.95
2018-10-03T11:47:12.269Z,99677.39
2018-10-03T11:49:40.842Z,99727.98
2018-10-03T11:52:09.465Z,99684.42
2018-10-03T11:54:38.014Z,99689.95
2018-10-03T11:57:06.628Z,99691.55
2018-10-03T11:59:35.213Z,99697.73
2018-10-03T12:02:03.675Z,99696.86
2018-10-03T12:04:32.260Z,99684.52
2018-10-03T12:07:01.048Z,99698.75
2018-10-03T12:09:29.636Z,99696.44
2018-10-03T12:11:58.244Z,99703.60
2018-10-03T12:14:26.908Z,99809.72
2018-10-03T12:16:55.340Z,99725.55
2018-10-03T12:19:23.960Z,99716.91
2018-10-03T12:21:52.673Z,99727.99
2018-10-03T12:24:21.133Z,99726.72
2018-10-03T12:26:49.663Z,99731.94
2018-10-03T12:29:18.252Z,99738.56
2018-10-03T12:31:47.008Z,99740.01
2018-10-03T12:34:16.463Z,99735.33
2018-10-03T12:36:45.185Z,99723.45
2018-10-03T12:39:13.705Z,99772.35
2018-10-03T12:41:43.430Z,99765.49
2018-10-03T12:44:14.103Z,99775.54
2018-10-03T12:46:43.698Z,99783.65
2018-10-03T12:49:12.370Z,99774.40
2018-10-03T12:51:40.911Z,99792.76
2018-10-03T12:54:09.466Z,99792.95
2018-10-03T12:56:38.037Z,99798.91
2018-10-03T12:59:06.933Z,99807.52
2018-10-03T13:01:36.307Z,99823.48
2018-10-03T13:04:04.820Z,99847.80
2018-10-03T13:06:33.376Z,99854.70
2018-10-03T13:09:01.968Z,99867.08
2018-10-03T13:11:30.674Z,99842.27
2018-10-03T13:13:59.123Z,99827.42
2018-10-03T13:16:28.051Z,99830.61
2018-10-03T13:18:56.653Z,99834.28
2018-10-03T13:21:25.251Z,99842.47
2018-10-03T13:23:53.691Z,99854.10
2018-10-03T13:26:22.262Z,99885.88
2018-10-03T13:28:50.922Z,99882.31
2018-10-03T13:31:20.453Z,99900.16
2018-10-03T13:33:49.013Z,99894.34
2018-10-03T13:36:17.684Z,99894.94
2018-10-03T13:38:47.044Z,99881.41
2018-10-03T13:41:15.724Z,99893.83
2018-10-03T13:43:44.703Z,99858.41
2018-10-03T13:46:14.884Z,99872.27
2018-10-03T13:48:44.031Z,99883.89
2018-10-03T13:51:12.798Z,99883.30
2018-10-03T13:53:41.546Z,99894.14
2018-10-03T13:56:10.269Z,99889.41
2018-10-03T13:58:39.271Z,99887.23
2018-10-03T14:01:07.888Z,99896.03
2018-10-03T14:03:37.865Z,99921.17
2018-10-03T14:06:06.383Z,99938.09
2018-10-03T14:08:35.029Z,99925.22
2018-10-03T14:11:03.732Z,99930.41
2018-10-03T14:13:35.096Z,99924.49
2018-10-03T14:16:03.826Z,99920.05
2018-10-03T14:18:32.985Z,99917.09
2018-10-03T14:21:01.552Z,99933.45
2018-10-03T14:23:30.185Z,99923.52
2018-10-03T14:25:58.680Z,99932.22
2018-10-03T14:28:27.238Z,99957.52
2018-10-03T14:30:56.488Z,99969.77
2018-10-03T14:33:25.158Z,99947.35
2018-10-03T14:35:53.655Z,99955.39
2018-10-03T14:38:22.661Z,99952.50
2018-10-03T14:40:51.236Z,99938.52
2018-10-03T14:43:19.857Z,99940.48
2018-10-03T14:45:48.713Z,99930.38
2018-10-03T14:48:17.283Z,99949.11
2018-10-03T14:50:45.948Z,99957.14
2018-10-03T14:53:15.522Z,99963.63
2018-10-03T14:55:44.104Z,99964.25
2018-10-03T14:58:12.806Z,99981.81
2018-10-03T15:00:41.464Z,99961.79
2018-10-03T15:03:10.963Z,99957.72
2018-10-03T15:05:39.602Z,99957.95
2018-10-03T15:08:09.677Z,99966.84
2018-10-03T15:10:38.239Z,99986.02
2018-10-03T15:13:06.762Z,100005.03
2018-10-03T15:15:35.312Z,99996.55
2018-10-03T15:18:04.059Z,99995.30
2018-10-03T15:20:32.731Z,99985.96
2018-10-03T15:23:02.224Z,99988.55
2018-10-03T15:25:34.725Z,100000.66
2018-10-03T15:28:03.331Z,100000.89
2018-10-03T15:30:32.112Z,99999.49
2018-10-03T15:33:00.743Z,99996.54
2018-10-03T15:35:30.493Z,99999.69
2018-10-03T15:37:59.221Z,100018.82
2018-10-03T15:40:27.897Z,100000.70
2018-10-03T15:42:56.456Z,100023.70
2018-10-03T15:45:25.741Z,100020.81
2018-10-03T15:47:55.292Z,100022.27
2018-10-03T15:50:24.021Z,100028.84
2018-10-03T15:52:52.629Z,100024.89
2018-10-03T15:55:21.113Z,100028.46
2018-10-03T15:57:49.698Z,100051.41
2018-10-03T16:00:18.314Z,100050.87
2018-10-03T16:02:48.984Z,100048.41
2018-10-03T16:05:19.692Z,100057.71
2018-10-03T16:07:49.869Z,100061.61
2018-10-03T16:10:18.537Z,100071.44
2018-10-03T16:12:47.215Z,100069.41
2018-10-03T16:15:16.303Z,100084.79
2018-10-03T16:17:44.972Z,100070.81
2018-10-03T16:20:13.547Z,100075.80
2018-10-03T16:22:42.275Z,100069.61
2018-10-03T16:25:10.905Z,100082.00
2018-10-03T16:27:39.490Z,100083.38
2018-10-03T16:30:08.169Z,100085.22
2018-10-03T16:32:36.855Z,100098.53
2018-10-03T16:35:05.517Z,100091.56
2018-10-03T16:37:34.057Z,100094.31
2018-10-03T16:40:02.982Z,100105.91
2018-10-03T16:42:31.564Z,100107.17
2018-10-03T16:45:00.038Z,100120.02
2018-10-03T16:47:28.584Z,100122.66
2018-10-03T16:49:57.221Z,100132.13
2018-10-03T16:52:25.813Z,100139.08
2018-10-03T16:54:54.344Z,100140.11
2018-10-03T16:57:22.883Z,100150.96
2018-10-03T16:59:51.617Z,100147.72
2018-10-03T17:02:21.318Z,100162.34
2018-10-03T17:04:50.958Z,100161.31
2018-10-03T17:07:20.294Z,100167.50
2018-10-03T17:09:48.771Z,100167.50
2018-10-03T17:12:17.527Z,100173.89
2018-10-03T17:14:46.092Z,100174.19
2018-10-03T17:17:14.718Z,100196.34
2018-10-03T17:19:43.235Z,100191.47
2018-10-03T17:22:11.944Z,100189.84
2018-10-03T17:24:40.671Z,100198.85
2018-10-03T17:27:09.274Z,100218.77
2018-10-03T17:29:38.067Z,100205.64
2018-10-03T17:32:06.703Z,100214.91
2018-10-03T17:34:35.476Z,100221.19
2018-10-03T17:37:04.353Z,100229.32
2018-10-03T17:39:32.838Z,100235.14
2018-10-03T17:42:03.637Z,100233.65
2018-10-03T17:44:32.323Z,100233.81
2018-10-03T17:47:01.034Z,100237.81
2018-10-03T17:49:29.686Z,100243.45
2018-10-03T17:51:58.286Z,100254.04
2018-10-03T17:54:26.899Z,100256.17
2018-10-03T17:56:55.524Z,100266.80
2018-10-03T17:59:25.400Z,100260.67
2018-10-03T18:01:56.094Z,100275.53
2018-10-03T18:04:24.687Z,100273.89
2018-10-03T18:06:53.355Z,100281.66
2018-10-03T18:09:22.090Z,100292.81
2018-10-03T18:11:50.716Z,100289.31
2018-10-03T18:14:19.357Z,100297.66
2018-10-03T18:16:49.438Z,100301.02
2018-10-03T18:19:18.148Z,100302.56
2018-10-03T18:21:46.624Z,100313.33
2018-10-03T18:24:15.143Z,100309.00
2018-10-03T18:26:43.824Z,100317.00
2018-10-03T18:29:12.540Z,100301.59
2018-10-03T18:31:41.232Z,100324.38
2018-10-03T18:34:10.475Z,100321.67
2018-10-03T18:36:39.409Z,100320.95
2018-10-03T18:39:09.596Z,100320.39
2018-10-03T18:41:38.938Z,100332.53
2018-10-03T18:44:08.246Z,100327.61
2018-10-03T18:46:37.138Z,100329.90
2018-10-03T18:49:06.353Z,100339.10
2018-10-03T18:51:35.631Z,100335.33
2018-10-03T18:54:04.644Z,100341.75
2018-10-03T18:56:34.575Z,100347.47
2018-10-03T18:59:03.762Z,100341.03
2018-10-03T19:01:33.214Z,100347.91
2018-10-03T19:04:02.475Z,100366.34
2018-10-03T19:06:31.577Z,100364.48
2018-10-03T19:09:01.083Z,100373.48
2018-10-03T19:11:30.082Z,100375.31
2018-10-03T19:13:59.180Z,100374.58
2018-10-03T19:16:30.123Z,100374.27
2018-10-03T19:18:59.255Z,100376.16
2018-10-03T19:21:28.305Z,100387.58
2018-10-03T19:23:57.318Z,100379.81
2018-10-03T19:26:26.264Z,100386.88
2018-10-03T19:28:55.751Z,100392.77
2018-10-03T19:31:24.618Z,100383.18
2018-10-03T19:33:53.566Z,100392.89
2018-10-03T19:36:22.508Z,100401.70
2018-10-03T19:38:51.565Z,100413.50
2018-10-03T19:41:20.639Z,100412.25
2018-10-03T19:43:49.497Z,100409.35
2018-10-03T19:46:18.135Z,100415.53
2018-10-03T19:48:46.816Z,100420.37
2018-10-03T19:51:16.038Z,100423.95
2018-10-03T19:53:44.779Z,100424.42
2018-10-03T19:56:13.603Z,100432.75
2018-10-03T19:58:44.213Z,100430.61
2018-10-03T20:01:12.849Z,100443.69
2018-10-03T20:03:41.579Z,100440.16
2018-10-03T20:06:10.221Z,100441.45
2018-10-03T20:08:39.065Z,100452.34
2018-10-03T20:11:07.868Z,100445.75
2018-10-03T20:13:36.486Z,100457.23
2018-10-03T20:16:05.178Z,100449.41
2018-10-03T20:18:33.823Z,100448.72
2018-10-03T20:21:02.500Z,100446.63
2018-10-03T20:23:32.133Z,100460.26
2018-10-03T20:26:00.806Z,100460.23
2018-10-03T20:28:29.394Z,100466.73
2018-10-03T20:30:59.134Z,100468.92
2018-10-03T20:33:27.693Z,100463.33
2018-10-03T20:35:56.351Z,100475.17
2018-10-03T20:38:25.017Z,100472.61
2018-10-03T20:40:53.880Z,100469.61
2018-10-03T20:43:22.390Z,100469.72
2018-10-03T20:45:51.961Z,100480.74
2018-10-03T20:48:20.707Z,100483.92
2018-10-03T20:50:49.280Z,100474.73
2018-10-03T20:53:17.888Z,100473.89
2018-10-03T20:55:46.453Z,100485.33
2018-10-03T20:58:15.197Z,100490.63
2018-10-03T21:00:43.792Z,100487.16
2018-10-03T21:03:12.330Z,100483.31
2018-10-03T21:05:41.086Z,100480.31
2018-10-03T21:08:09.632Z,100476.00
2018-10-03T21:10:38.437Z,100477.73
2018-10-03T21:13:07.465Z,100479.05
2018-10-03T21:15:36.230Z,100484.72
2018-10-03T21:18:04.741Z,100489.08
2018-10-03T21:20:33.237Z,100481.16
2018-10-03T21:23:01.825Z,100481.11
2018-10-03T21:25:31.061Z,100484.09
2018-10-03T21:27:59.728Z,100484.54
2018-10-03T21:30:28.535Z,100476.75
2018-10-03T21:32:57.155Z,100476.33
2018-10-03T21:35:25.680Z,100478.95
2018-10-03T21:37:54.153Z,100478.58
2018-10-03T21:40:22.990Z,100472.09
2018-10-03T21:42:51.590Z,100482.66
2018-10-03T21:45:20.175Z,100470.20
2018-10-03T21:47:48.760Z,100483.33
2018-10-03T21:50:17.933Z,100483.86
2018-10-03T21:52:46.421Z,100478.13
2018-10-03T21:55:14.989Z,100478.05
2018-10-03T21:57:43.444Z,100480.11
2018-10-03T22:00:12.082Z,100473.47
2018-10-03T22:02:40.871Z,100471.69
2018-10-03T22:05:10.316Z,100472.53
2018-10-03T22:07:40.544Z,100473.80
2018-10-03T22:10:09.377Z,100481.67
2018-10-03T22:12:38.157Z,100486.50
2018-10-03T22:15:07.009Z,100483.41
2018-10-03T22:17:40.344Z,100486.41
2018-10-03T22:20:10.992Z,100485.52
2018-10-03T22:22:39.798Z,100488.53
2018-10-03T22:25:08.594Z,100493.25
2018-10-03T22:27:38.095Z,100491.47
2018-10-03T22:30:06.998Z,100491.95
2018-10-03T22:32:36.075Z,100490.19
2018-10-03T22:35:04.790Z,100492.36
2018-10-03T22:37:33.594Z,100494.14
2018-10-03T22:40:02.485Z,100491.52
2018-10-03T22:42:32.307Z,100489.37
2018-10-03T22:45:01.145Z,100489.00
2018-10-03T22:47:30.070Z,100489.52
2018-10-03T22:49:58.876Z,100494.81
2018-10-03T22:52:27.667Z,100508.42
2018-10-03T22:54:56.473Z,100508.89
2018-10-03T22:57:26.191Z,100503.26
2018-10-03T22:59:55.517Z,100509.48
2018-10-03T23:02:24.208Z,100513.91
2018-10-03T23:04:52.903Z,100512.61
2018-10-03T23:07:21.642Z,100517.82
2018-10-03T23:09:50.459Z,100514.29
2018-10-03T23:12:19.259Z,100519.94
2018-10-03T23:14:47.956Z,100509.39
2018-10-03T23:17:16.690Z,100513.70
2018-10-03T23:19:45.372Z,100518.03
2018-10-03T23:22:14.055Z,100516.77
2018-10-03T23:24:42.816Z,100519.94
2018-10-03T23:27:12.517Z,100529.56
2018-10-03T23:29:41.273Z,100530.47
2018-10-03T23:32:10.003Z,100534.88
2018-10-03T23:34:38.949Z,100540.16
2018-10-03T23:37:08.185Z,100541.90
2018-10-03T23:39:36.995Z,100552.86
2018-10-03T23:42:05.805Z,100556.45
2018-10-03T23:44:34.478Z,100551.70
2018-10-03T23:47:03.850Z,100557.43
2018-10-03T23:49:32.665Z,100555.30
2018-10-03T23:52:01.356Z,100556.61
2018-10-03T23:54:30.146Z,100564.09
2018-10-03T23:56:59.042Z,100560.65
2018-10-03T23:59:28.174Z,100556.72
